createdAt,value
2022-10-14T00:01:41.289Z,10.4
2022-10-14T00:11:18.684Z,10.65
2022-10-14T00:30:33.340Z,10.7
2022-10-14T00:40:10.346Z,10.69
2022-10-14T00:49:47.688Z,10.63
2022-10-14T00:59:24.866Z,10.57
2022-10-14T01:09:02.343Z,10.7
2022-10-14T01:18:39.613Z,10.86
2022-10-14T01:28:16.815Z,10.84
2022-10-14T01:37:54.011Z,10.88
2022-10-14T01:47:31.588Z,10.98
2022-10-14T01:57:08.737Z,11.01
2022-10-14T02:06:46.010Z,11.1
2022-10-14T02:16:23.443Z,11.06
2022-10-14T02:26:00.510Z,10.96
2022-10-14T02:35:37.578Z,10.92
2022-10-14T02:45:14.732Z,11.01
2022-10-14T02:54:51.663Z,11.02
2022-10-14T03:04:28.716Z,11.07
2022-10-14T03:14:06.427Z,11.16
2022-10-14T03:23:43.706Z,11.15
2022-10-14T03:33:23.625Z,11.18
2022-10-14T03:42:58.597Z,11.1
2022-10-14T03:52:35.768Z,11.08
2022-10-14T04:02:12.867Z,11.15
2022-10-14T04:11:50.175Z,11.2
2022-10-14T04:21:27.589Z,11.25
2022-10-14T04:31:04.789Z,11.25
2022-10-14T04:40:41.824Z,11.29
2022-10-14T04:50:19.163Z,11.29
2022-10-14T04:59:56.572Z,11.33
2022-10-14T05:09:33.601Z,11.33
2022-10-14T05:19:10.995Z,11.34
2022-10-14T05:28:48.273Z,11.37
2022-10-14T05:38:25.518Z,11.41
2022-10-14T05:48:02.727Z,11.44
2022-10-14T05:57:40.133Z,11.49
2022-10-14T06:07:16.636Z,11.59
2022-10-14T06:16:55.882Z,11.68
2022-10-14T06:26:32.249Z,11.66
2022-10-14T06:36:09.842Z,11.86
2022-10-14T06:45:46.943Z,12.14
2022-10-14T06:55:24.375Z,12.34
2022-10-14T07:05:01.918Z,12.3
2022-10-14T07:14:39.241Z,12.36
2022-10-14T07:24:16.807Z,12.52
2022-10-14T07:33:54.745Z,12.88
2022-10-14T07:43:32.995Z,13.17
2022-10-14T07:53:10.759Z,13.33
2022-10-14T08:02:49.208Z,13.9
2022-10-14T08:12:27.473Z,14.37
2022-10-14T08:22:05.566Z,14.61
2022-10-14T08:31:43.721Z,15.21
2022-10-14T08:41:22.194Z,15.58
2022-10-14T08:51:00.656Z,15.67
2022-10-14T09:00:39.328Z,16.24
2022-10-14T09:10:17.523Z,16.35
2022-10-14T09:19:56.604Z,16.59
2022-10-14T09:29:34.724Z,17.26
2022-10-14T09:39:13.674Z,16.87
2022-10-14T09:48:51.152Z,17.04
2022-10-14T09:58:28.760Z,16.99
2022-10-14T10:08:07.515Z,17.96
2022-10-14T10:17:44.441Z,18.05
2022-10-14T10:27:21.828Z,17.79
2022-10-14T10:37:02.638Z,18.15
2022-10-14T10:47:00.348Z,19.24
2022-10-14T10:56:29.537Z,18.33
2022-10-14T11:06:03.464Z,18.2
2022-10-14T11:15:42.345Z,18.19
2022-10-14T11:25:24.138Z,18.38
2022-10-14T11:35:05.539Z,18.98
2022-10-14T11:44:40.754Z,18.43
2022-10-14T12:04:01.346Z,19.89
2022-10-14T12:13:42.104Z,20.25
2022-10-14T12:23:13.000Z,18.87
2022-10-14T12:32:45.309Z,18.2
2022-10-14T12:42:19.516Z,17.94
2022-10-14T12:51:55.757Z,17.61
2022-10-14T13:01:33.729Z,17.48
2022-10-14T13:11:08.328Z,17.39
2022-10-14T13:20:46.053Z,17.64
2022-10-14T13:30:28.254Z,18.14
2022-10-14T13:40:00.623Z,18.26
2022-10-14T13:49:37.747Z,18.01
2022-10-14T13:59:21.750Z,17.66
2022-10-14T14:08:51.854Z,17.27
2022-10-14T14:18:56.635Z,18.99
2022-10-14T14:28:14.279Z,18.25
2022-10-14T14:37:55.508Z,17.64
2022-10-14T14:47:22.385Z,17.39
2022-10-14T14:56:58.697Z,17.39
2022-10-14T15:06:36.011Z,17.14
2022-10-14T15:16:12.507Z,16.79
2022-10-14T15:25:48.745Z,16.73
2022-10-14T15:35:24.859Z,16.55
2022-10-14T15:45:01.438Z,16.31
2022-10-14T15:54:37.620Z,16
2022-10-14T16:04:14.136Z,15.75
2022-10-14T16:13:50.436Z,15.43
2022-10-14T16:23:29.521Z,15.24
2022-10-14T16:33:04.117Z,15.19
2022-10-14T16:42:40.783Z,15.12
2022-10-14T16:52:17.466Z,15.07
2022-10-14T17:01:54.496Z,15.02
2022-10-14T17:11:31.918Z,14.78
2022-10-14T17:21:08.693Z,14.51
2022-10-14T17:30:45.209Z,14.33
2022-10-14T17:40:22.059Z,14.06
2022-10-14T17:49:58.901Z,13.97
2022-10-14T17:59:35.862Z,13.96
2022-10-14T18:09:12.827Z,13.51
2022-10-14T18:18:49.727Z,13.56
2022-10-14T18:28:27.064Z,13.89
2022-10-14T18:38:04.205Z,14.03
2022-10-14T18:47:40.823Z,14.09
2022-10-14T18:57:17.863Z,13.9
2022-10-14T19:06:54.758Z,13.77
2022-10-14T19:26:09.077Z,13.78
2022-10-14T19:35:46.392Z,13.82
2022-10-14T19:45:23.602Z,13.76
2022-10-14T19:54:59.781Z,13.45
2022-10-14T20:04:36.185Z,13.2
2022-10-14T20:23:50.177Z,13.11
2022-10-14T20:33:27.442Z,13.15
2022-10-14T20:43:04.482Z,13.2
2022-10-14T21:02:17.929Z,13.3
2022-10-14T21:11:55.207Z,13.23
2022-10-14T21:21:32.243Z,13.23
2022-10-14T21:31:09.542Z,13.18
2022-10-14T21:40:46.911Z,13.09
2022-10-14T21:50:24.185Z,12.98
2022-10-14T22:00:00.702Z,12.94
2022-10-14T22:09:37.843Z,12.98
2022-10-14T22:19:14.832Z,13.01
2022-10-14T22:28:51.967Z,12.99
2022-10-14T22:38:29.097Z,13.02
2022-10-14T22:48:06.570Z,13.1
2022-10-14T22:57:43.970Z,13.09
2022-10-14T23:07:21.435Z,13.09
2022-10-14T23:16:58.763Z,13.13
2022-10-14T23:26:36.029Z,13.13
2022-10-14T23:36:13.334Z,13.2
2022-10-14T23:55:27.569Z,13.16
